sensor_id;sensor_type;location;lat;lon;timestamp;P1;durP1;ratioP1;P2;durP2;ratioP2
572;SDS011;271;51.114;13.780;2022-08-25T00:01:35;29.63;;;13.97;;
572;SDS011;271;51.114;13.780;2022-08-25T00:04:04;29.50;;;14.00;;
572;SDS011;271;51.114;13.780;2022-08-25T00:06:35;25.80;;;13.70;;
572;SDS011;271;51.114;13.780;2022-08-25T00:09:02;31.90;;;14.57;;
572;SDS011;271;51.114;13.780;2022-08-25T00:11:31;27.13;;;12.93;;
572;SDS011;271;51.114;13.780;2022-08-25T00:14:03;26.17;;;12.80;;
572;SDS011;271;51.114;13.780;2022-08-25T00:16:32;25.37;;;12.57;;
572;SDS011;271;51.114;13.780;2022-08-25T00:19:01;26.87;;;13.07;;
572;SDS011;271;51.114;13.780;2022-08-25T00:21:30;27.10;;;12.90;;
572;SDS011;271;51.114;13.780;2022-08-25T00:23:58;26.60;;;13.03;;
572;SDS011;271;51.114;13.780;2022-08-25T00:26:27;27.57;;;12.67;;
572;SDS011;271;51.114;13.780;2022-08-25T00:28:54;28.87;;;13.20;;
572;SDS011;271;51.114;13.780;2022-08-25T00:31:23;27.90;;;13.70;;
572;SDS011;271;51.114;13.780;2022-08-25T00:33:50;27.20;;;12.70;;
572;SDS011;271;51.114;13.780;2022-08-25T00:36:18;27.73;;;14.13;;
572;SDS011;271;51.114;13.780;2022-08-25T00:38:46;27.10;;;14.07;;
572;SDS011;271;51.114;13.780;2022-08-25T00:41:15;30.97;;;13.30;;
572;SDS011;271;51.114;13.780;2022-08-25T00:43:48;27.63;;;13.93;;
572;SDS011;271;51.114;13.780;2022-08-25T00:46:17;28.67;;;13.10;;
572;SDS011;271;51.114;13.780;2022-08-25T00:48:50;28.90;;;13.50;;
572;SDS011;271;51.114;13.780;2022-08-25T00:51:23;27.07;;;12.03;;
572;SDS011;271;51.114;13.780;2022-08-25T00:53:55;27.93;;;13.00;;
572;SDS011;271;51.114;13.780;2022-08-25T00:56:23;26.37;;;12.90;;
572;SDS011;271;51.114;13.780;2022-08-25T00:58:50;26.57;;;12.40;;
572;SDS011;271;51.114;13.780;2022-08-25T01:01:18;24.93;;;11.43;;
572;SDS011;271;51.114;13.780;2022-08-25T01:03:45;24.67;;;11.10;;
572;SDS011;271;51.114;13.780;2022-08-25T01:06:13;28.03;;;12.50;;
572;SDS011;271;51.114;13.780;2022-08-25T01:08:40;27.40;;;11.80;;
572;SDS011;271;51.114;13.780;2022-08-25T01:11:08;28.03;;;13.70;;
572;SDS011;271;51.114;13.780;2022-08-25T01:13:36;26.90;;;12.73;;
572;SDS011;271;51.114;13.780;2022-08-25T01:16:06;27.33;;;12.80;;
572;SDS011;271;51.114;13.780;2022-08-25T01:18:44;26.20;;;12.27;;
572;SDS011;271;51.114;13.780;2022-08-25T01:21:15;26.63;;;12.70;;
572;SDS011;271;51.114;13.780;2022-08-25T01:23:43;26.00;;;12.17;;
572;SDS011;271;51.114;13.780;2022-08-25T01:26:11;26.30;;;12.83;;
572;SDS011;271;51.114;13.780;2022-08-25T01:28:40;25.37;;;12.60;;
572;SDS011;271;51.114;13.780;2022-08-25T01:31:34;28.00;;;13.70;;
572;SDS011;271;51.114;13.780;2022-08-25T01:34:01;28.03;;;13.30;;
572;SDS011;271;51.114;13.780;2022-08-25T01:36:30;27.70;;;13.00;;
572;SDS011;271;51.114;13.780;2022-08-25T01:38:57;24.50;;;11.80;;
572;SDS011;271;51.114;13.780;2022-08-25T01:41:26;28.13;;;12.60;;
572;SDS011;271;51.114;13.780;2022-08-25T01:44:00;27.00;;;13.03;;
572;SDS011;271;51.114;13.780;2022-08-25T01:46:30;27.40;;;12.00;;
572;SDS011;271;51.114;13.780;2022-08-25T01:48:57;26.27;;;12.80;;
572;SDS011;271;51.114;13.780;2022-08-25T01:51:24;28.57;;;12.83;;
572;SDS011;271;51.114;13.780;2022-08-25T01:53:55;26.20;;;12.40;;
572;SDS011;271;51.114;13.780;2022-08-25T01:56:22;27.50;;;13.90;;
572;SDS011;271;51.114;13.780;2022-08-25T01:58:49;25.97;;;12.80;;
572;SDS011;271;51.114;13.780;2022-08-25T02:01:17;27.43;;;13.90;;
572;SDS011;271;51.114;13.780;2022-08-25T02:03:46;26.73;;;12.40;;
572;SDS011;271;51.114;13.780;2022-08-25T02:06:17;29.20;;;12.73;;
572;SDS011;271;51.114;13.780;2022-08-25T02:08:49;26.73;;;12.20;;
572;SDS011;271;51.114;13.780;2022-08-25T02:11:18;25.97;;;12.33;;
572;SDS011;271;51.114;13.780;2022-08-25T02:13:45;25.87;;;11.80;;
572;SDS011;271;51.114;13.780;2022-08-25T02:16:13;27.00;;;14.73;;
572;SDS011;271;51.114;13.780;2022-08-25T02:18:44;27.83;;;12.97;;
572;SDS011;271;51.114;13.780;2022-08-25T02:21:11;25.17;;;12.40;;
572;SDS011;271;51.114;13.780;2022-08-25T02:23:38;28.47;;;12.33;;
572;SDS011;271;51.114;13.780;2022-08-25T02:26:05;28.70;;;12.63;;
572;SDS011;271;51.114;13.780;2022-08-25T02:28:34;25.87;;;12.57;;
572;SDS011;271;51.114;13.780;2022-08-25T02:31:02;28.53;;;13.90;;
572;SDS011;271;51.114;13.780;2022-08-25T02:33:30;28.43;;;13.50;;
572;SDS011;271;51.114;13.780;2022-08-25T02:35:57;27.60;;;12.57;;
572;SDS011;271;51.114;13.780;2022-08-25T02:38:25;26.53;;;12.10;;
572;SDS011;271;51.114;13.780;2022-08-25T02:40:52;26.57;;;12.47;;
572;SDS011;271;51.114;13.780;2022-08-25T02:43:19;25.83;;;12.83;;
572;SDS011;271;51.114;13.780;2022-08-25T02:45:47;25.70;;;12.40;;
572;SDS011;271;51.114;13.780;2022-08-25T02:48:14;26.20;;;12.03;;
572;SDS011;271;51.114;13.780;2022-08-25T02:50:45;26.90;;;12.50;;
572;SDS011;271;51.114;13.780;2022-08-25T02:53:12;24.13;;;11.73;;
572;SDS011;271;51.114;13.780;2022-08-25T02:55:39;26.70;;;12.13;;
572;SDS011;271;51.114;13.780;2022-08-25T02:58:06;26.23;;;12.53;;
572;SDS011;271;51.114;13.780;2022-08-25T03:00:34;25.57;;;12.00;;
572;SDS011;271;51.114;13.780;2022-08-25T03:03:03;26.10;;;12.67;;
572;SDS011;271;51.114;13.780;2022-08-25T03:05:30;26.27;;;12.20;;
572;SDS011;271;51.114;13.780;2022-08-25T03:07:57;27.73;;;13.17;;
572;SDS011;271;51.114;13.780;2022-08-25T03:10:24;28.03;;;12.40;;
572;SDS011;271;51.114;13.780;2022-08-25T03:12:51;27.33;;;11.93;;
572;SDS011;271;51.114;13.780;2022-08-25T03:15:18;24.93;;;12.13;;
572;SDS011;271;51.114;13.780;2022-08-25T03:17:46;26.43;;;11.90;;
572;SDS011;271;51.114;13.780;2022-08-25T03:20:15;24.90;;;12.60;;
572;SDS011;271;51.114;13.780;2022-08-25T03:22:43;25.13;;;11.30;;
572;SDS011;271;51.114;13.780;2022-08-25T03:25:09;23.37;;;10.17;;
572;SDS011;271;51.114;13.780;2022-08-25T03:27:53;25.83;;;11.87;;
572;SDS011;271;51.114;13.780;2022-08-25T03:30:20;25.80;;;11.93;;
572;SDS011;271;51.114;13.780;2022-08-25T03:32:47;26.93;;;12.60;;
572;SDS011;271;51.114;13.780;2022-08-25T03:35:15;31.27;;;12.80;;
572;SDS011;271;51.114;13.780;2022-08-25T03:37:42;25.20;;;11.90;;
572;SDS011;271;51.114;13.780;2022-08-25T03:40:10;25.57;;;11.97;;
572;SDS011;271;51.114;13.780;2022-08-25T03:42:39;25.77;;;12.47;;
572;SDS011;271;51.114;13.780;2022-08-25T03:45:06;25.60;;;12.33;;
572;SDS011;271;51.114;13.780;2022-08-25T03:47:35;26.70;;;12.73;;
572;SDS011;271;51.114;13.780;2022-08-25T03:50:03;26.20;;;12.10;;
572;SDS011;271;51.114;13.780;2022-08-25T03:52:31;26.03;;;11.73;;
572;SDS011;271;51.114;13.780;2022-08-25T03:54:58;25.07;;;11.57;;
572;SDS011;271;51.114;13.780;2022-08-25T03:57:25;25.60;;;13.03;;
572;SDS011;271;51.114;13.780;2022-08-25T03:59:52;26.50;;;12.37;;
572;SDS011;271;51.114;13.780;2022-08-25T04:02:19;25.93;;;12.47;;
572;SDS011;271;51.114;13.780;2022-08-25T04:04:46;26.30;;;12.43;;
572;SDS011;271;51.114;13.780;2022-08-25T04:07:14;26.20;;;11.53;;
572;SDS011;271;51.114;13.780;2022-08-25T04:09:42;28.60;;;12.20;;
572;SDS011;271;51.114;13.780;2022-08-25T04:12:09;26.73;;;14.10;;
572;SDS011;271;51.114;13.780;2022-08-25T04:14:36;26.60;;;11.67;;
572;SDS011;271;51.114;13.780;2022-08-25T04:17:03;26.60;;;12.53;;
572;SDS011;271;51.114;13.780;2022-08-25T04:19:30;27.77;;;12.27;;
572;SDS011;271;51.114;13.780;2022-08-25T04:21:56;26.03;;;12.73;;
572;SDS011;271;51.114;13.780;2022-08-25T04:24:23;26.37;;;12.00;;
572;SDS011;271;51.114;13.780;2022-08-25T04:26:52;28.70;;;14.43;;
572;SDS011;271;51.114;13.780;2022-08-25T04:29:20;26.93;;;13.70;;
572;SDS011;271;51.114;13.780;2022-08-25T04:31:48;28.40;;;14.00;;
572;SDS011;271;51.114;13.780;2022-08-25T04:34:16;30.10;;;13.23;;
572;SDS011;271;51.114;13.780;2022-08-25T04:36:44;29.47;;;14.27;;
572;SDS011;271;51.114;13.780;2022-08-25T04:39:11;28.40;;;14.87;;
572;SDS011;271;51.114;13.780;2022-08-25T04:41:38;27.80;;;14.57;;
572;SDS011;271;51.114;13.780;2022-08-25T04:44:06;28.53;;;13.83;;
572;SDS011;271;51.114;13.780;2022-08-25T04:46:33;30.43;;;14.50;;
572;SDS011;271;51.114;13.780;2022-08-25T04:49:01;27.50;;;13.20;;
572;SDS011;271;51.114;13.780;2022-08-25T04:51:29;26.77;;;12.57;;
572;SDS011;271;51.114;13.780;2022-08-25T04:53:58;26.37;;;13.30;;
572;SDS011;271;51.114;13.780;2022-08-25T04:56:26;27.40;;;13.60;;
572;SDS011;271;51.114;13.780;2022-08-25T04:58:54;26.20;;;12.80;;
572;SDS011;271;51.114;13.780;2022-08-25T05:01:23;27.40;;;13.23;;
572;SDS011;271;51.114;13.780;2022-08-25T05:03:52;28.17;;;13.97;;
572;SDS011;271;51.114;13.780;2022-08-25T05:06:20;28.40;;;12.77;;
572;SDS011;271;51.114;13.780;2022-08-25T05:08:46;30.50;;;14.57;;
572;SDS011;271;51.114;13.780;2022-08-25T05:11:13;28.80;;;14.97;;
572;SDS011;271;51.114;13.780;2022-08-25T05:13:42;29.27;;;13.90;;
572;SDS011;271;51.114;13.780;2022-08-25T05:16:10;30.00;;;16.53;;
572;SDS011;271;51.114;13.780;2022-08-25T05:18:38;29.40;;;15.10;;
572;SDS011;271;51.114;13.780;2022-08-25T05:21:06;28.67;;;15.90;;
572;SDS011;271;51.114;13.780;2022-08-25T05:23:35;29.00;;;15.10;;
572;SDS011;271;51.114;13.780;2022-08-25T05:26:06;30.63;;;15.67;;
572;SDS011;271;51.114;13.780;2022-08-25T05:28:34;28.40;;;14.90;;
572;SDS011;271;51.114;13.780;2022-08-25T05:31:02;31.47;;;16.40;;
572;SDS011;271;51.114;13.780;2022-08-25T05:33:29;28.57;;;14.63;;
572;SDS011;271;51.114;13.780;2022-08-25T05:35:58;32.53;;;15.30;;
572;SDS011;271;51.114;13.780;2022-08-25T05:38:24;30.43;;;16.10;;
572;SDS011;271;51.114;13.780;2022-08-25T05:40:51;28.33;;;15.07;;
572;SDS011;271;51.114;13.780;2022-08-25T05:43:21;26.60;;;13.33;;
572;SDS011;271;51.114;13.780;2022-08-25T05:45:48;26.37;;;13.90;;
572;SDS011;271;51.114;13.780;2022-08-25T05:48:15;29.30;;;15.87;;
572;SDS011;271;51.114;13.780;2022-08-25T05:50:42;28.63;;;14.77;;
572;SDS011;271;51.114;13.780;2022-08-25T05:53:17;27.13;;;14.03;;
572;SDS011;271;51.114;13.780;2022-08-25T05:55:44;31.43;;;16.00;;
572;SDS011;271;51.114;13.780;2022-08-25T05:58:11;30.63;;;16.53;;
572;SDS011;271;51.114;13.780;2022-08-25T06:00:38;30.27;;;16.17;;
572;SDS011;271;51.114;13.780;2022-08-25T06:03:06;30.57;;;16.23;;
572;SDS011;271;51.114;13.780;2022-08-25T06:05:31;29.23;;;16.17;;
572;SDS011;271;51.114;13.780;2022-08-25T06:07:58;30.70;;;16.87;;
572;SDS011;271;51.114;13.780;2022-08-25T06:10:27;32.10;;;17.43;;
572;SDS011;271;51.114;13.780;2022-08-25T06:12:54;30.97;;;17.80;;
572;SDS011;271;51.114;13.780;2022-08-25T06:15:22;33.10;;;18.60;;
572;SDS011;271;51.114;13.780;2022-08-25T06:17:50;34.20;;;19.17;;
572;SDS011;271;51.114;13.780;2022-08-25T06:20:18;32.93;;;19.00;;
572;SDS011;271;51.114;13.780;2022-08-25T06:22:46;32.53;;;19.70;;
572;SDS011;271;51.114;13.780;2022-08-25T06:25:15;31.13;;;17.60;;
572;SDS011;271;51.114;13.780;2022-08-25T06:27:44;34.13;;;19.70;;
572;SDS011;271;51.114;13.780;2022-08-25T06:30:13;33.90;;;19.77;;
572;SDS011;271;51.114;13.780;2022-08-25T06:32:42;31.13;;;18.83;;
572;SDS011;271;51.114;13.780;2022-08-25T06:35:10;35.90;;;21.00;;
572;SDS011;271;51.114;13.780;2022-08-25T06:37:38;33.53;;;20.57;;
572;SDS011;271;51.114;13.780;2022-08-25T06:40:06;29.70;;;17.20;;
572;SDS011;271;51.114;13.780;2022-08-25T06:42:35;28.90;;;16.93;;
572;SDS011;271;51.114;13.780;2022-08-25T06:45:05;28.60;;;17.10;;
572;SDS011;271;51.114;13.780;2022-08-25T06:47:32;30.57;;;17.87;;
572;SDS011;271;51.114;13.780;2022-08-25T06:49:59;31.57;;;17.97;;
572;SDS011;271;51.114;13.780;2022-08-25T06:52:28;31.27;;;16.70;;
572;SDS011;271;51.114;13.780;2022-08-25T06:54:55;30.40;;;16.67;;
572;SDS011;271;51.114;13.780;2022-08-25T06:57:21;31.67;;;18.43;;
572;SDS011;271;51.114;13.780;2022-08-25T06:59:48;31.20;;;18.63;;
572;SDS011;271;51.114;13.780;2022-08-25T07:02:16;30.63;;;18.23;;
572;SDS011;271;51.114;13.780;2022-08-25T07:04:44;32.00;;;19.33;;
572;SDS011;271;51.114;13.780;2022-08-25T07:07:11;28.90;;;16.80;;
572;SDS011;271;51.114;13.780;2022-08-25T07:09:38;27.60;;;17.00;;
572;SDS011;271;51.114;13.780;2022-08-25T07:12:05;31.50;;;17.00;;
572;SDS011;271;51.114;13.780;2022-08-25T07:14:32;29.93;;;17.50;;
572;SDS011;271;51.114;13.780;2022-08-25T07:17:00;33.37;;;19.20;;
572;SDS011;271;51.114;13.780;2022-08-25T07:19:28;32.40;;;19.60;;
572;SDS011;271;51.114;13.780;2022-08-25T07:21:55;31.40;;;16.67;;
572;SDS011;271;51.114;13.780;2022-08-25T07:24:22;29.37;;;16.43;;
572;SDS011;271;51.114;13.780;2022-08-25T07:26:49;28.40;;;17.40;;
572;SDS011;271;51.114;13.780;2022-08-25T07:29:17;29.87;;;17.90;;
572;SDS011;271;51.114;13.780;2022-08-25T07:31:46;27.90;;;16.40;;
572;SDS011;271;51.114;13.780;2022-08-25T07:34:13;26.07;;;15.40;;
572;SDS011;271;51.114;13.780;2022-08-25T07:36:59;26.03;;;16.13;;
572;SDS011;271;51.114;13.780;2022-08-25T07:39:28;28.37;;;15.20;;
572;SDS011;271;51.114;13.780;2022-08-25T07:41:55;28.43;;;13.80;;
572;SDS011;271;51.114;13.780;2022-08-25T07:44:23;29.13;;;14.67;;
572;SDS011;271;51.114;13.780;2022-08-25T07:46:50;24.57;;;13.40;;
572;SDS011;271;51.114;13.780;2022-08-25T07:49:18;26.97;;;13.90;;
572;SDS011;271;51.114;13.780;2022-08-25T07:51:45;26.83;;;14.20;;
572;SDS011;271;51.114;13.780;2022-08-25T07:54:13;24.10;;;12.77;;
572;SDS011;271;51.114;13.780;2022-08-25T07:56:40;25.43;;;14.20;;
572;SDS011;271;51.114;13.780;2022-08-25T07:59:07;25.20;;;14.07;;
572;SDS011;271;51.114;13.780;2022-08-25T08:01:35;25.73;;;13.60;;
572;SDS011;271;51.114;13.780;2022-08-25T08:04:03;25.80;;;13.30;;
572;SDS011;271;51.114;13.780;2022-08-25T08:06:30;25.60;;;13.80;;
572;SDS011;271;51.114;13.780;2022-08-25T08:08:57;24.83;;;13.63;;
572;SDS011;271;51.114;13.780;2022-08-25T08:11:26;25.80;;;13.73;;
572;SDS011;271;51.114;13.780;2022-08-25T08:13:56;23.03;;;11.40;;
572;SDS011;271;51.114;13.780;2022-08-25T08:16:24;24.00;;;12.53;;
572;SDS011;271;51.114;13.780;2022-08-25T08:18:53;25.57;;;11.80;;
572;SDS011;271;51.114;13.780;2022-08-25T08:21:21;24.57;;;13.30;;
572;SDS011;271;51.114;13.780;2022-08-25T08:23:49;24.93;;;11.77;;
572;SDS011;271;51.114;13.780;2022-08-25T08:26:18;23.70;;;12.20;;
572;SDS011;271;51.114;13.780;2022-08-25T08:28:47;25.40;;;13.37;;
572;SDS011;271;51.114;13.780;2022-08-25T08:31:15;24.60;;;13.27;;
572;SDS011;271;51.114;13.780;2022-08-25T08:33:43;23.57;;;12.57;;
572;SDS011;271;51.114;13.780;2022-08-25T08:36:11;24.07;;;11.70;;
572;SDS011;271;51.114;13.780;2022-08-25T08:38:47;32.90;;;13.50;;
572;SDS011;271;51.114;13.780;2022-08-25T08:41:24;25.73;;;12.40;;
572;SDS011;271;51.114;13.780;2022-08-25T08:44:24;23.70;;;11.77;;
572;SDS011;271;51.114;13.780;2022-08-25T08:46:57;26.13;;;11.80;;
572;SDS011;271;51.114;13.780;2022-08-25T08:49:30;26.40;;;12.93;;
572;SDS011;271;51.114;13.780;2022-08-25T08:52:03;23.97;;;11.10;;
572;SDS011;271;51.114;13.780;2022-08-25T08:54:33;25.27;;;10.00;;
572;SDS011;271;51.114;13.780;2022-08-25T08:57:03;23.50;;;10.90;;
572;SDS011;271;51.114;13.780;2022-08-25T08:59:39;29.37;;;11.30;;
572;SDS011;271;51.114;13.780;2022-08-25T09:02:12;21.73;;;10.97;;
572;SDS011;271;51.114;13.780;2022-08-25T09:04:47;25.13;;;12.23;;
572;SDS011;271;51.114;13.780;2022-08-25T09:07:21;31.17;;;14.33;;
572;SDS011;271;51.114;13.780;2022-08-25T09:09:51;25.77;;;12.30;;
572;SDS011;271;51.114;13.780;2022-08-25T09:12:20;24.40;;;12.93;;
572;SDS011;271;51.114;13.780;2022-08-25T09:15:03;24.10;;;10.20;;
572;SDS011;271;51.114;13.780;2022-08-25T09:17:50;26.00;;;9.50;;
572;SDS011;271;51.114;13.780;2022-08-25T09:20:39;22.93;;;8.37;;
572;SDS011;271;51.114;13.780;2022-08-25T09:23:19;21.70;;;8.43;;
572;SDS011;271;51.114;13.780;2022-08-25T09:26:01;21.93;;;8.50;;
572;SDS011;271;51.114;13.780;2022-08-25T09:28:36;22.83;;;8.63;;
572;SDS011;271;51.114;13.780;2022-08-25T09:31:11;27.10;;;8.60;;
572;SDS011;271;51.114;13.780;2022-08-25T09:33:42;26.30;;;10.60;;
572;SDS011;271;51.114;13.780;2022-08-25T09:36:09;25.13;;;8.70;;
572;SDS011;271;51.114;13.780;2022-08-25T09:38:36;27.40;;;8.40;;
572;SDS011;271;51.114;13.780;2022-08-25T09:41:04;22.30;;;8.37;;
572;SDS011;271;51.114;13.780;2022-08-25T09:43:32;22.40;;;7.47;;
572;SDS011;271;51.114;13.780;2022-08-25T09:46:02;25.80;;;8.40;;
572;SDS011;271;51.114;13.780;2022-08-25T09:48:42;20.53;;;7.57;;
572;SDS011;271;51.114;13.780;2022-08-25T09:51:14;27.80;;;8.70;;
572;SDS011;271;51.114;13.780;2022-08-25T09:53:46;21.90;;;8.10;;
572;SDS011;271;51.114;13.780;2022-08-25T09:56:18;27.63;;;8.33;;
572;SDS011;271;51.114;13.780;2022-08-25T09:58:48;22.17;;;7.80;;
572;SDS011;271;51.114;13.780;2022-08-25T10:01:18;24.70;;;7.00;;
572;SDS011;271;51.114;13.780;2022-08-25T10:03:53;25.40;;;9.17;;
572;SDS011;271;51.114;13.780;2022-08-25T10:06:22;26.33;;;8.17;;
572;SDS011;271;51.114;13.780;2022-08-25T10:08:54;27.43;;;8.30;;
572;SDS011;271;51.114;13.780;2022-08-25T10:11:31;23.43;;;7.23;;
572;SDS011;271;51.114;13.780;2022-08-25T10:14:06;23.20;;;7.70;;
572;SDS011;271;51.114;13.780;2022-08-25T10:16:45;23.73;;;7.90;;
572;SDS011;271;51.114;13.780;2022-08-25T10:19:21;21.20;;;7.60;;
572;SDS011;271;51.114;13.780;2022-08-25T10:22:00;24.73;;;9.10;;
572;SDS011;271;51.114;13.780;2022-08-25T10:24:31;24.00;;;8.63;;
572;SDS011;271;51.114;13.780;2022-08-25T10:27:08;22.97;;;8.20;;
572;SDS011;271;51.114;13.780;2022-08-25T10:32:48;24.30;;;8.60;;
572;SDS011;271;51.114;13.780;2022-08-25T10:35:39;22.63;;;8.63;;
572;SDS011;271;51.114;13.780;2022-08-25T10:38:25;27.23;;;8.23;;
572;SDS011;271;51.114;13.780;2022-08-25T10:41:05;24.30;;;7.97;;
572;SDS011;271;51.114;13.780;2022-08-25T10:44:00;23.10;;;7.43;;
572;SDS011;271;51.114;13.780;2022-08-25T10:46:58;26.37;;;8.40;;
572;SDS011;271;51.114;13.780;2022-08-25T10:49:41;27.93;;;9.97;;
572;SDS011;271;51.114;13.780;2022-08-25T10:52:14;25.33;;;9.30;;
572;SDS011;271;51.114;13.780;2022-08-25T10:54:45;29.20;;;10.10;;
572;SDS011;271;51.114;13.780;2022-08-25T10:57:19;31.50;;;9.60;;
572;SDS011;271;51.114;13.780;2022-08-25T11:00:03;27.30;;;7.83;;
572;SDS011;271;51.114;13.780;2022-08-25T11:02:45;31.00;;;8.00;;
572;SDS011;271;51.114;13.780;2022-08-25T11:05:32;27.87;;;8.97;;
572;SDS011;271;51.114;13.780;2022-08-25T11:08:05;32.73;;;8.67;;
572;SDS011;271;51.114;13.780;2022-08-25T11:10:39;27.53;;;8.03;;
572;SDS011;271;51.114;13.780;2022-08-25T11:13:14;25.50;;;6.70;;
572;SDS011;271;51.114;13.780;2022-08-25T11:15:47;27.03;;;7.50;;
572;SDS011;271;51.114;13.780;2022-08-25T11:18:18;25.63;;;8.73;;
572;SDS011;271;51.114;13.780;2022-08-25T11:20:56;24.57;;;8.50;;
572;SDS011;271;51.114;13.780;2022-08-25T11:23:30;24.90;;;7.83;;
572;SDS011;271;51.114;13.780;2022-08-25T11:26:02;26.53;;;8.77;;
572;SDS011;271;51.114;13.780;2022-08-25T11:28:36;32.80;;;8.13;;
572;SDS011;271;51.114;13.780;2022-08-25T11:31:14;27.70;;;9.30;;
572;SDS011;271;51.114;13.780;2022-08-25T11:33:42;32.53;;;9.73;;
572;SDS011;271;51.114;13.780;2022-08-25T11:36:11;27.53;;;9.27;;
572;SDS011;271;51.114;13.780;2022-08-25T11:38:46;25.47;;;8.40;;
572;SDS011;271;51.114;13.780;2022-08-25T11:41:38;24.13;;;7.50;;
572;SDS011;271;51.114;13.780;2022-08-25T11:44:15;24.83;;;8.30;;
572;SDS011;271;51.114;13.780;2022-08-25T11:49:56;30.57;;;8.00;;
572;SDS011;271;51.114;13.780;2022-08-25T11:52:40;26.23;;;7.40;;
572;SDS011;271;51.114;13.780;2022-08-25T11:55:14;21.33;;;7.33;;
572;SDS011;271;51.114;13.780;2022-08-25T11:57:42;29.27;;;7.90;;
572;SDS011;271;51.114;13.780;2022-08-25T12:00:37;29.90;;;9.80;;
572;SDS011;271;51.114;13.780;2022-08-25T12:06:16;27.53;;;9.57;;
572;SDS011;271;51.114;13.780;2022-08-25T12:08:48;33.17;;;8.97;;
572;SDS011;271;51.114;13.780;2022-08-25T12:14:19;25.83;;;10.17;;
572;SDS011;271;51.114;13.780;2022-08-25T12:17:24;28.97;;;9.80;;
572;SDS011;271;51.114;13.780;2022-08-25T12:20:02;24.53;;;8.20;;
572;SDS011;271;51.114;13.780;2022-08-25T12:22:44;23.67;;;8.53;;
572;SDS011;271;51.114;13.780;2022-08-25T12:25:33;26.27;;;8.97;;
572;SDS011;271;51.114;13.780;2022-08-25T12:28:16;24.67;;;8.70;;
572;SDS011;271;51.114;13.780;2022-08-25T12:31:15;22.30;;;7.87;;
572;SDS011;271;51.114;13.780;2022-08-25T12:33:52;27.37;;;7.70;;
572;SDS011;271;51.114;13.780;2022-08-25T12:36:32;26.63;;;7.67;;
572;SDS011;271;51.114;13.780;2022-08-25T12:39:16;27.70;;;8.07;;
572;SDS011;271;51.114;13.780;2022-08-25T12:41:53;22.13;;;7.33;;
572;SDS011;271;51.114;13.780;2022-08-25T12:44:33;23.80;;;7.00;;
572;SDS011;271;51.114;13.780;2022-08-25T12:47:23;25.50;;;8.63;;
572;SDS011;271;51.114;13.780;2022-08-25T12:52:58;30.63;;;8.17;;
572;SDS011;271;51.114;13.780;2022-08-25T12:55:35;30.27;;;7.70;;
572;SDS011;271;51.114;13.780;2022-08-25T12:58:05;23.20;;;7.20;;
572;SDS011;271;51.114;13.780;2022-08-25T13:00:34;20.83;;;6.67;;
572;SDS011;271;51.114;13.780;2022-08-25T13:06:21;26.07;;;7.23;;
572;SDS011;271;51.114;13.780;2022-08-25T13:12:13;30.97;;;6.83;;
572;SDS011;271;51.114;13.780;2022-08-25T13:14:45;22.33;;;8.60;;
572;SDS011;271;51.114;13.780;2022-08-25T13:17:23;30.27;;;8.60;;
572;SDS011;271;51.114;13.780;2022-08-25T13:19:51;27.20;;;7.77;;
572;SDS011;271;51.114;13.780;2022-08-25T13:22:33;30.57;;;8.43;;
572;SDS011;271;51.114;13.780;2022-08-25T13:25:01;24.97;;;7.70;;
572;SDS011;271;51.114;13.780;2022-08-25T13:27:29;25.50;;;8.47;;
572;SDS011;271;51.114;13.780;2022-08-25T13:30:00;27.23;;;8.37;;
572;SDS011;271;51.114;13.780;2022-08-25T13:32:29;25.87;;;8.53;;
572;SDS011;271;51.114;13.780;2022-08-25T13:37:46;24.57;;;7.50;;
572;SDS011;271;51.114;13.780;2022-08-25T13:40:13;26.87;;;7.07;;
572;SDS011;271;51.114;13.780;2022-08-25T13:42:42;25.93;;;8.23;;
572;SDS011;271;51.114;13.780;2022-08-25T13:45:14;25.73;;;7.60;;
572;SDS011;271;51.114;13.780;2022-08-25T13:47:43;22.73;;;6.97;;
572;SDS011;271;51.114;13.780;2022-08-25T13:50:17;26.77;;;8.33;;
572;SDS011;271;51.114;13.780;2022-08-25T13:52:46;22.87;;;8.10;;
572;SDS011;271;51.114;13.780;2022-08-25T13:55:20;23.83;;;7.53;;
572;SDS011;271;51.114;13.780;2022-08-25T13:57:48;24.10;;;7.57;;
572;SDS011;271;51.114;13.780;2022-08-25T14:00:25;25.13;;;8.00;;
572;SDS011;271;51.114;13.780;2022-08-25T14:02:56;22.07;;;7.20;;
572;SDS011;271;51.114;13.780;2022-08-25T14:05:32;22.87;;;8.87;;
572;SDS011;271;51.114;13.780;2022-08-25T14:08:04;25.63;;;8.80;;
572;SDS011;271;51.114;13.780;2022-08-25T14:10:34;25.83;;;7.70;;
572;SDS011;271;51.114;13.780;2022-08-25T14:13:08;24.80;;;7.40;;
572;SDS011;271;51.114;13.780;2022-08-25T14:15:39;28.33;;;8.47;;
572;SDS011;271;51.114;13.780;2022-08-25T14:18:09;27.37;;;8.40;;
572;SDS011;271;51.114;13.780;2022-08-25T14:20:42;27.30;;;9.27;;
572;SDS011;271;51.114;13.780;2022-08-25T14:23:14;29.53;;;10.33;;
572;SDS011;271;51.114;13.780;2022-08-25T14:25:42;27.07;;;10.10;;
572;SDS011;271;51.114;13.780;2022-08-25T14:28:10;25.50;;;9.30;;
572;SDS011;271;51.114;13.780;2022-08-25T14:30:41;26.27;;;8.60;;
572;SDS011;271;51.114;13.780;2022-08-25T14:33:09;25.30;;;9.23;;
572;SDS011;271;51.114;13.780;2022-08-25T14:35:37;23.80;;;8.23;;
572;SDS011;271;51.114;13.780;2022-08-25T14:38:07;24.83;;;8.40;;
572;SDS011;271;51.114;13.780;2022-08-25T14:40:37;25.90;;;8.10;;
572;SDS011;271;51.114;13.780;2022-08-25T14:43:05;23.87;;;8.43;;
572;SDS011;271;51.114;13.780;2022-08-25T14:45:33;27.40;;;8.50;;
572;SDS011;271;51.114;13.780;2022-08-25T14:48:04;24.77;;;8.23;;
572;SDS011;271;51.114;13.780;2022-08-25T14:50:44;23.53;;;7.87;;
572;SDS011;271;51.114;13.780;2022-08-25T14:53:11;27.53;;;8.07;;
572;SDS011;271;51.114;13.780;2022-08-25T14:55:38;23.70;;;8.70;;
572;SDS011;271;51.114;13.780;2022-08-25T14:58:05;27.03;;;8.47;;
572;SDS011;271;51.114;13.780;2022-08-25T15:00:41;26.60;;;7.77;;
572;SDS011;271;51.114;13.780;2022-08-25T15:03:12;26.13;;;8.33;;
572;SDS011;271;51.114;13.780;2022-08-25T15:05:41;28.80;;;8.87;;
572;SDS011;271;51.114;13.780;2022-08-25T15:08:08;23.50;;;8.70;;
572;SDS011;271;51.114;13.780;2022-08-25T15:10:53;25.37;;;9.03;;
572;SDS011;271;51.114;13.780;2022-08-25T15:13:20;25.37;;;8.30;;
572;SDS011;271;51.114;13.780;2022-08-25T15:15:47;24.70;;;8.10;;
572;SDS011;271;51.114;13.780;2022-08-25T15:18:16;22.50;;;7.83;;
572;SDS011;271;51.114;13.780;2022-08-25T15:20:43;24.30;;;7.53;;
572;SDS011;271;51.114;13.780;2022-08-25T15:23:17;28.17;;;8.07;;
572;SDS011;271;51.114;13.780;2022-08-25T15:25:46;24.60;;;8.47;;
572;SDS011;271;51.114;13.780;2022-08-25T15:28:14;20.70;;;6.93;;
572;SDS011;271;51.114;13.780;2022-08-25T15:30:41;23.73;;;8.40;;
572;SDS011;271;51.114;13.780;2022-08-25T15:33:11;34.20;;;8.20;;
572;SDS011;271;51.114;13.780;2022-08-25T15:35:39;26.63;;;7.80;;
572;SDS011;271;51.114;13.780;2022-08-25T15:38:06;32.80;;;8.60;;
572;SDS011;271;51.114;13.780;2022-08-25T15:40:33;27.23;;;8.23;;
572;SDS011;271;51.114;13.780;2022-08-25T15:43:03;24.10;;;7.33;;
572;SDS011;271;51.114;13.780;2022-08-25T15:45:29;24.93;;;8.20;;
572;SDS011;271;51.114;13.780;2022-08-25T15:47:56;23.47;;;7.63;;
572;SDS011;271;51.114;13.780;2022-08-25T15:50:23;26.23;;;8.17;;
572;SDS011;271;51.114;13.780;2022-08-25T15:52:52;24.57;;;7.27;;
572;SDS011;271;51.114;13.780;2022-08-25T15:55:18;25.50;;;8.43;;